Time;durP1;ratioP1;P1;durP2;ratioP2;P2;SDS_P1;SDS_P2;PMS_P1;PMS_P2;Temp;Humidity;BMP_temperature;BMP_pressure;BME280_temperature;BME280_humidity;BME280_pressure;Samples;Min_cycle;Max_cycle;Signal;HPM_P1;HPM_P2
2024/02/19 00:00:43;;;;;;;4.53;1.20;;;;;;;11.19;73.99;100767.38;4164545;28;20167;-72
2024/02/19 00:02:43;;;;;;;2.20;0.80;;;;;;;11.11;74.45;100773.38;4164036;28;20045;-73
2024/02/19 00:04:44;;;;;;;2.13;0.80;;;;;;;10.97;74.97;100779.91;4164411;28;20087;-73
2024/02/19 00:06:44;;;;;;;2.17;0.70;;;;;;;10.87;75.10;100771.81;4158443;28;20026;-72
2024/02/19 00:08:45;;;;;;;3.13;1.10;;;;;;;10.96;75.17;100770.19;4163533;28;20041;-72
2024/02/19 00:10:46;;;;;;;1.58;0.60;;;;;;;11.03;74.74;100768.72;4163974;28;20049;-71
2024/02/19 00:12:48;;;;;;;1.95;0.70;;;;;;;11.12;74.50;100769.72;4158560;28;20382;-72
2024/02/19 00:14:48;;;;;;;2.58;0.85;;;;;;;10.99;74.75;100772.59;4154441;28;20033;-76
2024/02/19 00:16:48;;;;;;;2.33;1.15;;;;;;;11.02;74.67;100767.00;4164306;28;20382;-71
2024/02/19 00:18:49;;;;;;;2.15;0.70;;;;;;;10.90;75.31;100779.59;4164315;28;20041;-71
2024/02/19 00:20:50;;;;;;;1.77;0.70;;;;;;;10.93;75.27;100775.81;4163763;28;20033;-72
2024/02/19 00:22:51;;;;;;;5.72;0.70;;;;;;;10.97;75.37;100779.91;4162693;28;20353;-73
2024/02/19 00:24:51;;;;;;;2.13;0.55;;;;;;;11.02;75.09;100785.72;4161900;28;20112;-73
2024/02/19 00:26:52;;;;;;;2.00;0.65;;;;;;;10.97;74.79;100784.41;4163615;28;20029;-72
2024/02/19 00:28:53;;;;;;;1.30;0.60;;;;;;;10.87;75.67;100787.00;4164049;28;20038;-73
2024/02/19 00:30:54;;;;;;;1.85;0.70;;;;;;;11.11;74.82;100788.59;4158300;28;20128;-71
2024/02/19 00:32:54;;;;;;;1.85;0.70;;;;;;;11.22;74.67;100791.22;4148030;28;20152;-72
2024/02/19 00:34:55;;;;;;;2.15;0.60;;;;;;;11.16;74.49;100799.75;4149082;28;20030;-73
2024/02/19 00:36:56;;;;;;;2.90;1.13;;;;;;;11.05;75.17;100798.81;4146746;28;20037;-72
2024/02/19 00:38:56;;;;;;;2.30;0.75;;;;;;;10.97;75.16;100789.78;4147494;28;20475;-71
2024/02/19 00:40:58;;;;;;;2.03;0.70;;;;;;;10.87;75.63;100789.69;4145940;28;20030;-73
2024/02/19 00:42:59;;;;;;;2.28;0.80;;;;;;;10.84;76.15;100788.13;4139370;28;20028;-72
2024/02/19 00:45:00;;;;;;;1.90;0.77;;;;;;;10.86;75.99;100780.81;4156585;28;20025;-73
2024/02/19 00:47:01;;;;;;;1.85;0.80;;;;;;;11.14;75.27;100791.03;4161466;28;20023;-73
2024/02/19 00:49:02;;;;;;;2.30;1.02;;;;;;;11.00;75.14;100786.84;4147397;28;20037;-73
2024/02/19 00:51:03;;;;;;;1.38;0.60;;;;;;;11.24;74.96;100790.09;4147131;28;20502;-72
2024/02/19 00:53:04;;;;;;;;;;;;;;;11.25;74.77;100796.28;4152807;28;20065;-72
2024/02/19 00:55:05;;;;;;;1.77;0.80;;;;;;;11.21;74.37;100797.56;4147435;28;19920;-73
2024/02/19 00:57:05;;;;;;;2.85;1.10;;;;;;;11.28;73.89;100798.72;4147732;28;20061;-72
2024/02/19 00:59:07;;;;;;;2.53;0.98;;;;;;;11.13;75.03;100806.22;4147518;28;20076;-73
2024/02/19 01:01:07;;;;;;;2.17;0.98;;;;;;;11.27;74.81;100801.53;4152782;28;20032;-72
2024/02/19 01:03:07;;;;;;;2.22;0.80;;;;;;;11.19;74.79;100804.84;4165402;28;20144;-74
2024/02/19 01:05:08;;;;;;;2.53;1.00;;;;;;;11.04;75.51;100804.31;4148279;28;20383;-73
2024/02/19 01:07:08;;;;;;;2.80;0.95;;;;;;;11.05;75.35;100809.53;4147535;28;20048;-73
2024/02/19 01:09:10;;;;;;;2.63;0.85;;;;;;;11.18;74.94;100809.38;4147195;28;20035;-73
2024/02/19 01:11:10;;;;;;;3.15;1.00;;;;;;;11.30;74.54;100801.25;4146787;28;20133;-72
2024/02/19 01:13:11;;;;;;;2.80;1.00;;;;;;;11.36;74.17;100801.59;4147029;28;20288;-73
2024/02/19 01:15:11;;;;;;;3.13;1.30;;;;;;;11.15;74.94;100803.41;4146899;28;20029;-72
2024/02/19 01:17:12;;;;;;;3.00;1.27;;;;;;;11.16;74.87;100802.44;4157658;28;20022;-73
2024/02/19 01:19:12;;;;;;;3.30;1.30;;;;;;;11.43;73.89;100795.72;4152627;28;20037;-72
2024/02/19 01:21:13;;;;;;;2.75;1.30;;;;;;;11.28;73.89;100797.88;4146245;28;20022;-71
2024/02/19 01:23:14;;;;;;;3.28;1.40;;;;;;;11.18;74.74;100792.44;4146853;28;20026;-73
2024/02/19 01:25:15;;;;;;;3.00;1.50;;;;;;;11.23;74.87;100798.28;4146003;28;20101;-72
2024/02/19 01:27:15;;;;;;;3.30;1.40;;;;;;;11.34;74.25;100794.66;4147145;28;20061;-72
2024/02/19 01:29:16;;;;;;;3.00;1.38;;;;;;;11.33;74.41;100785.81;4148480;28;20063;-72
2024/02/19 01:31:17;;;;;;;3.08;1.50;;;;;;;11.30;74.27;100790.53;4150577;28;20034;-72
2024/02/19 01:33:19;;;;;;;4.60;1.85;;;;;;;11.35;74.29;100794.53;4155255;28;20030;-72
2024/02/19 01:35:22;;;;;;;5.32;1.58;;;;;;;11.19;74.91;100794.16;4136794;28;20041;-72
2024/02/19 01:37:22;;;;;;;3.63;1.58;;;;;;;11.24;74.75;100778.56;4142024;28;20033;-72
2024/02/19 01:39:23;;;;;;;3.75;1.80;;;;;;;11.23;74.93;100787.56;4145309;28;20110;-72
2024/02/19 01:41:24;;;;;;;3.60;1.80;;;;;;;11.40;74.10;100794.13;4146702;28;20026;-72
2024/02/19 01:43:24;;;;;;;3.43;1.70;;;;;;;11.26;74.39;100794.47;4150856;28;20021;-73
2024/02/19 01:45:26;;;;;;;3.38;1.50;;;;;;;11.34;74.28;100798.19;4161962;28;20268;-72
2024/02/19 01:47:26;;;;;;;4.47;1.75;;;;;;;11.53;73.64;100797.47;4164033;28;20026;-71
2024/02/19 01:49:27;;;;;;;3.47;1.60;;;;;;;11.36;73.76;100795.41;4163621;28;20021;-72
2024/02/19 01:51:28;;;;;;;4.13;1.67;;;;;;;11.73;72.79;100788.66;4162356;28;20033;-72
2024/02/19 01:53:28;;;;;;;3.38;1.60;;;;;;;11.76;72.77;100797.28;4158798;28;20025;-73
2024/02/19 01:55:30;;;;;;;3.78;1.88;;;;;;;11.68;72.88;100805.13;4162454;28;20107;-73
2024/02/19 01:57:31;;;;;;;4.18;1.40;;;;;;;11.74;72.82;100801.94;4161571;28;20033;-71
2024/02/19 01:59:31;;;;;;;4.18;2.50;;;;;;;11.18;74.74;100798.66;4161390;28;20417;-73
2024/02/19 02:01:36;;;;;;;3.67;2.00;;;;;;;11.43;73.93;100804.59;4162651;28;20029;-71
2024/02/19 02:03:37;;;;;;;3.63;1.98;;;;;;;11.46;73.79;100801.66;4162928;28;20069;-73
2024/02/19 02:05:38;;;;;;;3.85;1.70;;;;;;;11.69;72.95;100798.78;4162275;28;20539;-74
2024/02/19 02:07:40;;;;;;;4.22;2.22;;;;;;;11.63;73.11;100805.53;4156190;28;20053;-72
2024/02/19 02:09:41;;;;;;;4.43;2.10;;;;;;;11.86;72.36;100805.38;4156969;28;20033;-73
2024/02/19 02:11:42;;;;;;;3.75;1.90;;;;;;;11.47;73.52;100794.47;4159055;28;20033;-73
2024/02/19 02:13:42;;;;;;;4.32;2.05;;;;;;;11.59;73.39;100801.44;4155839;28;20457;-72
2024/02/19 02:15:43;;;;;;;4.00;2.20;;;;;;;11.42;74.24;100799.38;4160914;28;20363;-73
2024/02/19 02:17:43;;;;;;;4.00;2.20;;;;;;;11.44;73.92;100802.75;4153286;28;20033;-72
2024/02/19 02:19:44;;;;;;;4.75;2.38;;;;;;;11.33;74.35;100795.66;4160484;28;20625;-72
2024/02/19 02:21:45;;;;;;;5.72;2.20;;;;;;;11.39;74.11;100800.47;4159917;28;20036;-72
2024/02/19 02:23:45;;;;;;;3.70;2.10;;;;;;;11.38;74.17;100788.91;4160165;28;20093;-73
2024/02/19 02:25:45;;;;;;;4.82;2.20;;;;;;;11.37;74.38;100789.91;4162674;28;20762;-73
2024/02/19 02:27:46;;;;;;;4.13;2.33;;;;;;;11.33;74.50;100790.28;4156995;28;20057;-72
2024/02/19 02:29:47;;;;;;;3.28;1.65;;;;;;;11.58;73.58;100794.38;4160361;28;20482;-72
2024/02/19 02:31:47;;;;;;;3.70;2.20;;;;;;;11.66;73.10;100789.22;4155771;28;20018;-73
2024/02/19 02:33:48;;;;;;;4.13;2.38;;;;;;;11.46;73.87;100796.31;4144003;28;20080;-72
2024/02/19 02:35:49;;;;;;;4.32;2.55;;;;;;;11.80;72.53;100808.59;4140968;28;20038;-73
2024/02/19 02:37:49;;;;;;;4.20;1.63;;;;;;;11.88;71.85;100798.06;4139057;28;20133;-72
2024/02/19 02:39:50;;;;;;;4.45;2.03;;;;;;;11.97;71.61;100805.31;4146987;28;20044;-72
2024/02/19 02:41:50;;;;;;;4.18;2.10;;;;;;;11.85;71.98;100811.69;4156594;28;20060;-73
2024/02/19 02:43:50;;;;;;;4.82;2.10;;;;;;;11.54;73.21;100799.16;4163365;28;20025;-72
2024/02/19 02:45:51;;;;;;;5.05;2.50;;;;;;;11.50;73.80;100800.41;4152918;28;20056;-72
2024/02/19 02:47:51;;;;;;;3.95;1.90;;;;;;;11.74;72.65;100796.59;4147625;28;20030;-72
2024/02/19 02:49:52;;;;;;;4.90;2.38;;;;;;;11.48;73.51;100797.00;4133912;28;20053;-73
2024/02/19 02:51:52;;;;;;;3.80;2.00;;;;;;;11.68;72.89;100791.75;4160405;28;20025;-72
2024/02/19 02:53:52;;;;;;;4.05;1.98;;;;;;;11.79;72.01;100797.00;4154052;28;20391;-71
2024/02/19 02:55:53;;;;;;;4.85;2.25;;;;;;;11.97;71.46;100794.59;4161550;28;20022;-73
2024/02/19 02:57:53;;;;;;;3.00;1.52;;;;;;;11.94;71.89;100789.47;4157486;28;20033;-74
2024/02/19 02:59:53;;;;;;;4.40;2.30;;;;;;;11.89;71.66;100797.06;4164882;28;20493;-73
2024/02/19 03:01:54;;;;;;;4.90;2.50;;;;;;;11.76;72.54;100796.44;4164123;28;20059;-73
2024/02/19 03:03:54;;;;;;;5.35;2.10;;;;;;;11.88;72.21;100800.72;4164792;28;20037;-72
2024/02/19 03:05:57;;;;;;;4.57;2.50;;;;;;;11.90;71.96;100793.41;4157802;28;20104;-72
2024/02/19 03:07:57;;;;;;;4.30;2.15;;;;;;;11.86;72.52;100797.31;4154248;28;20033;-72
2024/02/19 03:09:57;;;;;;;4.00;2.40;;;;;;;11.81;72.49;100789.69;4163655;28;20101;-72
2024/02/19 03:11:58;;;;;;;5.90;2.63;;;;;;;11.76;72.55;100791.09;4148849;28;20026;-72
2024/02/19 03:13:59;;;;;;;5.15;2.33;;;;;;;11.78;72.99;100794.47;4150036;28;20033;-74
2024/02/19 03:16:00;;;;;;;4.45;2.53;;;;;;;11.91;72.29;100787.03;4159220;28;20053;-72
2024/02/19 03:18:01;;;;;;;4.85;3.00;;;;;;;11.63;73.21;100796.66;4165992;28;20061;-73
2024/02/19 03:20:04;;;;;;;5.97;3.10;;;;;;;11.58;73.55;100791.72;4164428;28;20370;-72
2024/02/19 03:22:05;;;;;;;5.32;2.80;;;;;;;11.78;73.15;100797.16;4152519;28;20044;-73
2024/02/19 03:24:06;;;;;;;4.95;2.78;;;;;;;11.79;72.84;100793.50;4157346;28;20029;-73
2024/02/19 03:26:06;;;;;;;5.78;2.90;;;;;;;11.70;73.20;100793.31;4163842;28;20033;-73
2024/02/19 03:28:07;;;;;;;3.72;2.40;;;;;;;11.78;73.12;100792.63;4155466;28;20017;-73
2024/02/19 03:30:09;;;;;;;4.00;2.20;;;;;;;11.90;72.77;100792.53;4163638;28;20025;-73
2024/02/19 03:32:10;;;;;;;3.95;2.30;;;;;;;11.75;73.36;100800.09;4162546;28;20040;-73
2024/02/19 03:34:10;;;;;;;4.57;2.45;;;;;;;11.77;73.37;100798.13;4149991;28;20120;-73
2024/02/19 03:36:11;;;;;;;4.43;2.55;;;;;;;11.66;73.99;100791.88;4155570;28;20038;-74
2024/02/19 03:38:12;;;;;;;4.25;2.28;;;;;;;11.80;73.07;100804.06;4146784;28;20026;-73
2024/02/19 03:40:14;;;;;;;4.00;2.45;;;;;;;11.84;73.29;100793.94;4148327;28;20036;-73
2024/02/19 03:42:15;;;;;;;4.45;2.67;;;;;;;11.73;73.29;100796.69;4138629;28;20034;-73
2024/02/19 03:44:16;;;;;;;5.68;2.80;;;;;;;11.60;74.08;100797.78;4149180;28;20089;-73
2024/02/19 03:46:16;;;;;;;5.35;3.10;;;;;;;11.64;73.72;100791.16;4174995;28;20017;-73
2024/02/19 03:48:17;;;;;;;4.45;2.78;;;;;;;11.77;73.64;100790.09;4180416;28;20064;-73
2024/02/19 03:50:17;;;;;;;4.68;2.78;;;;;;;11.97;72.62;100788.34;4180144;28;20044;-73
2024/02/19 03:52:20;;;;;;;4.97;3.40;;;;;;;11.52;74.32;100792.25;4172224;28;20037;-74
2024/02/19 03:54:20;;;;;;;5.10;3.40;;;;;;;11.70;74.14;100804.03;4180550;28;20037;-74
2024/02/19 03:56:21;;;;;;;4.13;2.97;;;;;;;11.73;73.70;100791.34;4180529;28;20156;-75
2024/02/19 03:58:22;;;;;;;6.78;3.35;;;;;;;11.67;74.13;100793.59;4171367;28;20030;-73
2024/02/19 04:00:23;;;;;;;;;;;;;;;11.85;73.50;100792.94;4170378;28;20030;-73
2024/02/19 04:02:24;;;;;;;4.83;2.90;;;;;;;11.79;73.33;100806.91;4163984;28;19920;-72
2024/02/19 04:04:24;;;;;;;;;;;;;;;11.68;74.14;100806.00;4165092;28;20315;-72
2024/02/19 04:06:24;;;;;;;8.33;3.00;;;;;;;11.77;74.14;100808.84;4156089;28;19920;-72
2024/02/19 04:08:25;;;;;;;4.77;3.27;;;;;;;11.87;73.24;100812.41;4164416;28;20080;-75
2024/02/19 04:10:26;;;;;;;5.82;3.10;;;;;;;11.66;74.19;100812.47;4156307;28;20277;-74
2024/02/19 04:12:26;;;;;;;5.35;3.30;;;;;;;11.63;74.54;100818.09;4162953;28;20034;-72
2024/02/19 04:14:26;;;;;;;4.88;3.45;;;;;;;11.63;74.48;100812.72;4162871;28;20535;-73
2024/02/19 04:16:27;;;;;;;5.25;3.08;;;;;;;11.78;73.93;100826.63;4155319;28;20037;-72
2024/02/19 04:18:27;;;;;;;5.63;3.33;;;;;;;11.59;74.28;100828.22;4157266;28;20029;-73
2024/02/19 04:20:29;;;;;;;4.68;2.63;;;;;;;11.90;73.29;100835.41;4164177;28;20041;-72
2024/02/19 04:22:30;;;;;;;4.93;3.53;;;;;;;11.45;74.92;100832.09;4157990;28;20049;-73
2024/02/19 04:24:30;;;;;;;6.05;3.30;;;;;;;11.49;74.94;100827.31;4164064;28;20037;-73
2024/02/19 04:26:31;;;;;;;6.43;3.22;;;;;;;11.55;74.73;100822.28;4164071;28;20029;-72
2024/02/19 04:28:31;;;;;;;5.43;3.03;;;;;;;11.60;74.72;100823.69;4153812;28;20026;-73
2024/02/19 04:30:32;;;;;;;4.78;2.75;;;;;;;11.48;75.07;100825.59;4147031;28;20037;-75
2024/02/19 04:32:32;;;;;;;4.75;3.28;;;;;;;11.42;75.27;100823.47;4157695;28;20021;-73
2024/02/19 04:34:33;;;;;;;5.53;3.38;;;;;;;11.52;74.92;100827.88;4158282;28;20029;-72
2024/02/19 04:36:33;;;;;;;5.28;2.65;;;;;;;11.58;74.77;100833.69;4150043;28;20495;-72
2024/02/19 04:38:34;;;;;;;4.68;2.88;;;;;;;11.63;74.95;100835.00;4136682;28;20601;-72
2024/02/19 04:40:35;;;;;;;4.30;2.90;;;;;;;11.55;74.48;100832.13;4150937;28;20029;-72
2024/02/19 04:42:36;;;;;;;;;;;;;;;11.39;75.28;100832.59;4149949;28;20435;-74
2024/02/19 04:44:39;;;;;;;5.72;3.38;;;;;;;11.35;75.77;100837.34;4136820;28;19955;-72
2024/02/19 04:46:39;;;;;;;7.45;4.03;;;;;;;11.21;76.64;100851.06;4133891;28;20031;-72
2024/02/19 04:48:39;;;;;;;8.18;3.58;;;;;;;11.37;75.83;100846.13;4139678;28;20126;-76
2024/02/19 04:50:40;;;;;;;5.00;3.50;;;;;;;11.19;76.91;100848.50;4145607;28;20065;-72
2024/02/19 04:52:41;;;;;;;;;;;;;;;11.24;77.14;100856.19;4142624;28;20398;-72
2024/02/19 04:54:41;;;;;;;6.53;3.50;;;;;;;11.37;76.16;100856.81;4131185;28;19944;-72
2024/02/19 04:56:41;;;;;;;5.60;3.53;;;;;;;11.39;75.89;100852.19;4130949;28;20030;-72
2024/02/19 04:58:42;;;;;;;5.75;3.30;;;;;;;11.46;75.39;100849.84;4130688;28;20776;-72
2024/02/19 05:00:43;;;;;;;6.10;3.15;;;;;;;11.37;75.53;100850.63;4132228;28;20034;-72
2024/02/19 05:02:44;;;;;;;;;;;;;;;11.61;73.96;100852.19;4131135;28;20043;-73
2024/02/19 05:04:44;;;;;;;5.45;2.72;;;;;;;11.48;74.70;100847.03;4133297;28;20243;-73
2024/02/19 05:06:45;;;;;;;5.15;2.90;;;;;;;11.50;74.58;100851.25;4138359;28;20045;-73
2024/02/19 05:08:45;;;;;;;9.55;3.03;;;;;;;11.55;74.43;100856.22;4140188;28;20021;-73
2024/02/19 05:10:46;;;;;;;6.00;2.70;;;;;;;11.57;73.82;100856.94;4138702;28;20058;-74
2024/02/19 05:12:46;;;;;;;6.10;3.22;;;;;;;11.62;73.78;100859.25;4144431;28;20026;-72
2024/02/19 05:14:47;;;;;;;5.28;2.90;;;;;;;11.56;73.79;100855.25;4146251;28;20065;-73
2024/02/19 05:16:47;;;;;;;5.97;3.10;;;;;;;11.49;74.33;100859.44;4146502;28;20116;-74
2024/02/19 05:18:49;;;;;;;4.75;3.05;;;;;;;11.36;74.57;100855.13;4145782;28;20407;-73
2024/02/19 05:20:50;;;;;;;6.72;3.58;;;;;;;11.51;73.88;100862.84;4147076;28;20089;-73
2024/02/19 05:22:50;;;;;;;;;;;;;;;11.54;73.59;100855.41;4147343;28;20026;-73
2024/02/19 05:24:51;;;;;;;5.30;3.50;;;;;;;11.49;73.67;100862.94;4147305;28;19916;-73
2024/02/19 05:26:52;;;;;;;6.38;3.15;;;;;;;11.20;74.63;100860.06;4147769;28;20080;-73
2024/02/19 05:28:53;;;;;;;6.40;3.27;;;;;;;11.48;73.91;100857.75;4147151;28;20029;-74
2024/02/19 05:30:54;;;;;;;6.22;2.88;;;;;;;11.42;73.66;100860.94;4147451;28;20272;-73
2024/02/19 05:32:55;;;;;;;6.95;3.38;;;;;;;11.48;73.81;100860.41;4148415;28;20097;-74
2024/02/19 05:34:55;;;;;;;5.50;3.60;;;;;;;11.46;73.13;100855.22;4148154;28;20124;-74
2024/02/19 05:36:56;;;;;;;5.75;3.55;;;;;;;11.40;73.92;100869.09;4148374;28;20597;-74
2024/02/19 05:38:56;;;;;;;5.43;2.85;;;;;;;11.62;73.19;100859.25;4154235;28;20503;-74
2024/02/19 05:40:57;;;;;;;6.72;3.17;;;;;;;11.48;73.50;100868.44;4139354;28;20052;-73
2024/02/19 05:42:58;;;;;;;6.00;3.20;;;;;;;11.46;72.95;100870.41;4154867;28;20156;-74
2024/02/19 05:44:58;;;;;;;5.97;2.75;;;;;;;11.77;72.03;100867.78;4150416;28;20576;-73
2024/02/19 05:46:58;;;;;;;6.10;3.28;;;;;;;11.73;72.27;100872.56;4151386;28;20060;-73
2024/02/19 05:48:59;;;;;;;5.70;3.20;;;;;;;11.68;72.52;100872.97;4164508;28;20029;-74
2024/02/19 05:51:06;;;;;;;8.10;3.22;;;;;;;11.59;72.42;100876.41;4164281;28;20029;-74
2024/02/19 05:53:06;;;;;;;5.50;3.42;;;;;;;11.51;72.98;100879.75;4164686;28;20026;-75
2024/02/19 05:55:09;;;;;;;7.53;3.33;;;;;;;11.51;72.95;100878.91;4164969;28;20489;-73
2024/02/19 05:57:09;;;;;;;7.20;3.13;;;;;;;11.19;74.08;100877.13;4164157;28;20521;-73
2024/02/19 05:59:11;;;;;;;5.72;2.70;;;;;;;11.67;72.08;100878.41;4161779;28;20097;-73
2024/02/19 06:01:12;;;;;;;6.32;2.90;;;;;;;11.58;72.31;100873.84;4163191;28;20025;-74
2024/02/19 06:03:13;;;;;;;5.85;3.00;;;;;;;11.63;72.01;100883.19;4162980;28;20425;-73
2024/02/19 06:05:13;;;;;;;4.65;2.60;;;;;;;11.73;71.74;100880.59;4162338;28;20031;-73
2024/02/19 06:07:14;;;;;;;5.35;2.92;;;;;;;11.65;71.72;100875.88;4162103;28;20029;-74
2024/02/19 06:09:16;;;;;;;4.95;2.92;;;;;;;11.62;71.90;100889.53;4168901;28;20040;-73
2024/02/19 06:11:16;;;;;;;8.00;2.72;;;;;;;11.41;72.16;100888.69;4170203;28;20036;-73
2024/02/19 06:13:17;;;;;;;4.53;2.33;;;;;;;11.60;71.55;100891.50;4166690;28;20116;-74
2024/02/19 06:15:17;;;;;;;6.03;2.67;;;;;;;11.77;70.74;100891.88;4162093;28;20025;-74
2024/02/19 06:17:18;;;;;;;5.30;2.50;;;;;;;11.49;71.51;100902.28;4162282;28;20029;-74
2024/02/19 06:19:19;;;;;;;7.00;3.35;;;;;;;11.38;71.84;100905.88;4162207;28;20482;-73
2024/02/19 06:21:19;;;;;;;5.82;2.60;;;;;;;11.65;70.87;100899.16;4160761;28;20044;-73
2024/02/19 06:23:20;;;;;;;6.03;2.50;;;;;;;11.75;70.39;100913.47;4162953;28;20164;-74
2024/02/19 06:25:20;;;;;;;4.85;2.40;;;;;;;11.48;70.87;100914.81;4165351;28;20104;-73
2024/02/19 06:27:21;;;;;;;4.90;2.17;;;;;;;11.83;69.77;100916.31;4163885;28;20033;-73
2024/02/19 06:29:25;;;;;;;6.55;3.10;;;;;;;11.86;69.35;100917.88;4170096;28;20478;-74
2024/02/19 06:31:27;;;;;;;5.80;2.35;;;;;;;11.82;69.83;100924.47;4180424;28;20132;-74
2024/02/19 06:33:28;;;;;;;8.30;2.60;;;;;;;11.48;70.64;100919.31;4177992;28;20052;-73
2024/02/19 06:35:28;;;;;;;7.45;2.35;;;;;;;11.76;69.63;100927.69;4180497;28;20033;-74
2024/02/19 06:37:30;;;;;;;5.53;2.58;;;;;;;11.88;68.99;100921.28;4181485;28;20032;-74
2024/02/19 06:39:31;;;;;;;4.97;1.92;;;;;;;11.88;68.66;100923.97;4182377;28;20037;-75
2024/02/19 06:41:31;;;;;;;5.53;2.28;;;;;;;11.70;69.15;100932.59;4152567;28;20120;-74
2024/02/19 06:43:32;;;;;;;5.55;2.00;;;;;;;11.55;69.23;100924.03;4141692;28;20030;-73
2024/02/19 06:45:32;;;;;;;6.47;2.20;;;;;;;11.54;69.13;100932.19;4140426;28;20522;-74
2024/02/19 06:47:32;;;;;;;5.78;2.30;;;;;;;11.49;69.09;100935.25;4149036;28;20460;-74
2024/02/19 06:49:33;;;;;;;3.63;1.60;;;;;;;11.64;68.59;100942.97;4138243;28;20628;-72
2024/02/19 06:51:33;;;;;;;5.47;2.30;;;;;;;11.75;68.01;100953.66;4148685;28;20022;-74
2024/02/19 06:53:34;;;;;;;6.78;2.00;;;;;;;11.67;67.82;100946.25;4140726;28;20108;-76
2024/02/19 06:55:34;;;;;;;5.05;2.00;;;;;;;11.97;67.06;100954.47;4147575;28;20033;-74
2024/02/19 06:57:35;;;;;;;5.73;2.03;;;;;;;11.96;67.02;100952.75;4148447;28;20026;-74
2024/02/19 06:59:35;;;;;;;5.73;2.10;;;;;;;12.05;66.67;100953.84;4137064;28;20360;-75
2024/02/19 07:01:38;;;;;;;3.72;1.73;;;;;;;11.89;66.88;100952.47;4132395;28;20273;-74
2024/02/19 07:03:39;;;;;;;4.05;1.83;;;;;;;11.79;67.01;100959.59;4145471;28;20045;-74
2024/02/19 07:05:40;;;;;;;5.43;1.75;;;;;;;11.71;67.06;100962.91;4146406;28;20097;-74
2024/02/19 07:07:40;;;;;;;4.50;1.60;;;;;;;11.95;66.32;100975.22;4140489;28;20105;-74
2024/02/19 07:09:41;;;;;;;4.43;1.98;;;;;;;12.11;66.11;100977.44;4144808;28;20098;-73
2024/02/19 07:11:41;;;;;;;4.47;1.50;;;;;;;11.91;66.39;100979.94;4141321;28;20113;-73
2024/02/19 07:13:42;;;;;;;6.85;2.47;;;;;;;11.92;66.41;100987.00;4149051;28;20021;-73
2024/02/19 07:15:43;;;;;;;5.45;2.08;;;;;;;12.07;65.82;100987.56;4149973;28;20110;-73
2024/02/19 07:17:43;;;;;;;5.85;2.10;;;;;;;11.86;66.33;100993.75;4149745;28;20056;-73
2024/02/19 07:19:43;;;;;;;3.58;1.55;;;;;;;11.94;66.02;101003.81;4151233;28;20034;-73
2024/02/19 07:21:44;;;;;;;4.88;1.70;;;;;;;11.85;66.10;101001.91;4150594;28;20034;-72
2024/02/19 07:23:44;;;;;;;7.22;2.10;;;;;;;11.57;66.91;101006.91;4151269;28;20025;-73
2024/02/19 07:25:45;;;;;;;5.32;2.05;;;;;;;11.74;66.41;101004.66;4152281;28;20026;-73
2024/02/19 07:27:46;;;;;;;5.18;1.83;;;;;;;11.92;65.81;101005.78;4150851;28;20521;-73
2024/02/19 07:29:46;;;;;;;3.47;1.10;;;;;;;11.88;65.66;101012.38;4148462;28;20109;-73
2024/02/19 07:31:47;;;;;;;5.18;1.40;;;;;;;11.75;65.95;101007.22;4148726;28;20041;-73
2024/02/19 07:33:47;;;;;;;5.97;1.85;;;;;;;11.91;65.24;101009.41;4148562;28;20557;-74
2024/02/19 07:35:49;;;;;;;3.58;1.38;;;;;;;12.13;64.76;101016.53;4147683;28;20026;-74
2024/02/19 07:37:49;;;;;;;6.38;1.75;;;;;;;11.70;65.65;101023.69;4148184;28;20026;-73
2024/02/19 07:39:49;;;;;;;9.60;2.22;;;;;;;11.63;65.88;101022.47;4147761;28;20076;-73
2024/02/19 07:41:50;;;;;;;5.55;1.70;;;;;;;11.85;65.10;101028.72;4148488;28;20026;-73
2024/02/19 07:43:51;;;;;;;4.43;1.50;;;;;;;12.05;64.85;101034.25;4152743;28;20060;-73
2024/02/19 07:45:52;;;;;;;6.40;1.52;;;;;;;11.91;65.13;101038.91;4160049;28;20026;-76
2024/02/19 07:47:52;;;;;;;4.97;1.40;;;;;;;11.71;65.17;101041.41;4166685;28;20034;-74
2024/02/19 07:49:54;;;;;;;3.40;1.20;;;;;;;11.55;65.60;101046.34;4162695;28;20541;-73
2024/02/19 07:51:54;;;;;;;7.45;1.52;;;;;;;11.58;65.44;101043.44;4148970;28;20032;-73
2024/02/19 07:53:55;;;;;;;4.93;1.52;;;;;;;11.63;65.12;101041.22;4148146;28;20084;-73
2024/02/19 07:56:05;;;;;;;7.63;2.03;;;;;;;11.63;64.89;101048.41;4147860;28;20052;-73
2024/02/19 07:58:05;;;;;;;4.47;1.40;;;;;;;11.84;64.82;101051.97;4147716;28;20033;-74
2024/02/19 08:00:07;;;;;;;6.95;1.45;;;;;;;11.68;65.00;101052.41;4147980;28;20510;-73
2024/02/19 08:02:07;;;;;;;7.00;2.15;;;;;;;11.69;65.37;101056.78;4147136;28;20120;-73
2024/02/19 08:04:08;;;;;;;4.03;1.30;;;;;;;11.74;65.41;101056.41;4147634;28;20478;-74
2024/02/19 08:06:08;;;;;;;3.88;1.58;;;;;;;11.94;64.51;101059.25;4144252;28;20154;-73
2024/02/19 08:08:09;;;;;;;5.72;1.40;;;;;;;11.78;65.20;101059.69;4134813;28;20041;-73
2024/02/19 08:10:09;;;;;;;7.18;2.00;;;;;;;11.75;65.12;101065.28;4146501;28;20030;-74
2024/02/19 08:12:10;;;;;;;5.80;1.70;;;;;;;11.85;64.80;101061.69;4146923;28;20216;-73
2024/02/19 08:14:10;;;;;;;6.75;1.73;;;;;;;11.63;65.18;101067.16;4146561;28;20065;-73
2024/02/19 08:16:14;;;;;;;9.57;1.92;;;;;;;11.62;65.42;101058.25;4145766;28;20065;-74
2024/02/19 08:18:16;;;;;;;3.20;1.20;;;;;;;11.78;64.90;101070.41;4147104;28;20026;-73
2024/02/19 08:20:17;;;;;;;7.00;1.95;;;;;;;11.93;64.54;101069.09;4147431;28;20026;-73
2024/02/19 08:22:17;;;;;;;4.28;1.77;;;;;;;11.53;65.15;101075.09;4146341;28;20092;-73
2024/02/19 08:24:18;;;;;;;6.00;1.50;;;;;;;11.51;65.27;101079.75;4147298;28;20093;-74
2024/02/19 08:26:19;;;;;;;7.80;1.80;;;;;;;11.44;65.49;101083.88;4147373;28;20261;-73
2024/02/19 08:28:19;;;;;;;8.93;1.75;;;;;;;11.79;64.42;101080.13;4147652;28;20029;-73
2024/02/19 08:30:21;;;;;;;5.70;2.15;;;;;;;11.53;65.02;101078.63;4146789;28;20038;-73
2024/02/19 08:32:21;;;;;;;5.25;1.48;;;;;;;11.41;65.13;101084.13;4147240;28;20044;-72
2024/02/19 08:34:22;;;;;;;4.38;1.35;;;;;;;11.56;64.53;101085.56;4147861;28;20037;-73
2024/02/19 08:36:23;;;;;;;6.18;1.50;;;;;;;11.25;65.50;101093.38;4146772;28;20030;-73
2024/02/19 08:38:24;;;;;;;8.93;1.80;;;;;;;11.39;65.41;101093.13;4147273;28;20033;-73
2024/02/19 08:40:25;;;;;;;6.25;1.30;;;;;;;11.51;65.05;101093.97;4147523;28;20037;-73
2024/02/19 08:42:25;;;;;;;6.78;1.80;;;;;;;11.58;65.07;101096.13;4148097;28;20030;-73
2024/02/19 08:44:25;;;;;;;6.05;1.42;;;;;;;11.57;64.70;101092.63;4148169;28;20056;-73
2024/02/19 08:46:26;;;;;;;4.55;1.42;;;;;;;11.89;64.16;101102.50;4147806;28;20018;-73
2024/02/19 08:48:26;;;;;;;5.13;1.53;;;;;;;11.85;64.36;101109.09;4147421;28;20041;-74
2024/02/19 08:50:27;;;;;;;4.55;1.58;;;;;;;11.42;65.24;101109.94;4148407;28;20265;-73
2024/02/19 08:52:27;;;;;;;6.32;2.33;;;;;;;12.01;63.74;101106.03;4150058;28;20479;-73
2024/02/19 08:54:28;;;;;;;6.38;2.13;;;;;;;11.57;64.58;101119.38;4158836;28;20022;-75
2024/02/19 08:56:29;;;;;;;8.23;2.00;;;;;;;11.46;65.01;101111.38;4161232;28;20026;-74
2024/02/19 08:58:30;;;;;;;8.20;2.25;;;;;;;11.50;64.47;101113.69;4159264;28;20029;-73
2024/02/19 09:00:31;;;;;;;6.07;1.55;;;;;;;11.85;63.94;101111.75;4158844;28;20045;-75
2024/02/19 09:02:31;;;;;;;7.10;1.92;;;;;;;11.85;63.68;101107.25;4160990;28;20124;-74
2024/02/19 09:04:32;;;;;;;3.85;1.48;;;;;;;12.00;63.26;101113.19;4162139;28;20126;-74
2024/02/19 09:06:32;;;;;;;5.38;2.05;;;;;;;11.76;63.20;101108.00;4163145;28;20017;-74
2024/02/19 09:08:34;;;;;;;10.38;3.33;;;;;;;11.95;62.83;101103.81;4163394;28;20068;-74
2024/02/19 09:10:37;;;;;;;7.88;1.88;;;;;;;11.68;63.09;101100.63;4161642;28;20108;-73
2024/02/19 09:12:37;;;;;;;5.35;1.88;;;;;;;12.07;62.45;101099.28;4148588;28;20065;-73
2024/02/19 09:14:38;;;;;;;5.65;1.98;;;;;;;11.85;62.71;101104.56;4147747;28;20022;-73
2024/02/19 09:16:38;;;;;;;5.05;1.98;;;;;;;11.76;62.88;101101.81;4146111;28;20604;-74
2024/02/19 09:18:39;;;;;;;4.28;1.42;;;;;;;11.76;62.82;101099.13;4147824;28;20060;-73
2024/02/19 09:20:40;;;;;;;4.55;1.90;;;;;;;11.71;63.00;101100.34;4147473;28;20387;-73
2024/02/19 09:22:41;;;;;;;4.97;1.90;;;;;;;11.63;62.77;101099.28;4147314;28;20192;-74